createdAt,value
2023-04-13T00:00:46.853Z,8.85
2023-04-13T00:03:19.599Z,8.82
2023-04-13T00:05:48.924Z,8.79
2023-04-13T00:08:17.999Z,8.77
2023-04-13T00:10:46.286Z,8.75
2023-04-13T00:13:15.116Z,8.71
2023-04-13T00:15:43.851Z,8.69
2023-04-13T00:18:12.484Z,8.66
2023-04-13T00:20:42.082Z,8.63
2023-04-13T00:23:10.769Z,8.60
2023-04-13T00:25:38.899Z,8.58
2023-04-13T00:28:07.286Z,8.55
2023-04-13T00:30:35.428Z,8.53
2023-04-13T00:33:06.424Z,8.51
2023-04-13T00:35:34.736Z,8.49
2023-04-13T00:38:03.449Z,8.46
2023-04-13T00:40:31.838Z,8.44
2023-04-13T00:43:01.081Z,8.43
2023-04-13T00:45:29.980Z,8.40
2023-04-13T00:47:58.457Z,8.38
2023-04-13T00:50:26.630Z,8.35
2023-04-13T00:52:55.014Z,8.34
2023-04-13T00:55:25.216Z,8.32
2023-04-13T00:57:53.692Z,8.30
2023-04-13T01:00:24.788Z,8.27
2023-04-13T01:02:56.273Z,8.25
2023-04-13T01:05:26.166Z,8.24
2023-04-13T01:07:59.440Z,8.22
2023-04-13T01:10:31.347Z,8.20
2023-04-13T01:13:10.425Z,8.19
2023-04-13T01:15:47.204Z,8.17
2023-04-13T01:18:19.500Z,8.15
2023-04-13T01:20:48.379Z,8.13
2023-04-13T01:23:36.639Z,8.11
2023-04-13T01:26:07.068Z,8.09
2023-04-13T01:28:36.364Z,8.07
2023-04-13T01:31:06.742Z,8.04
2023-04-13T01:33:35.595Z,8.01
2023-04-13T01:36:05.436Z,7.98
2023-04-13T01:38:33.531Z,7.95
2023-04-13T01:41:03.810Z,7.90
2023-04-13T01:43:35.156Z,7.87
2023-04-13T01:46:11.584Z,7.82
2023-04-13T01:48:56.475Z,7.79
2023-04-13T01:51:45.467Z,7.75
2023-04-13T01:54:23.949Z,7.73
2023-04-13T01:56:52.999Z,7.69
2023-04-13T01:59:22.835Z,7.67
2023-04-13T02:01:51.176Z,7.64
2023-04-13T02:04:20.132Z,7.63
2023-04-13T02:06:48.603Z,7.61
2023-04-13T02:09:17.290Z,7.59
2023-04-13T02:11:45.587Z,7.58
2023-04-13T02:14:14.853Z,7.56
2023-04-13T02:16:43.111Z,7.55
2023-04-13T02:19:11.247Z,7.54
2023-04-13T02:21:39.421Z,7.52
2023-04-13T02:24:08.023Z,7.50
2023-04-13T02:26:37.819Z,7.47
2023-04-13T02:29:07.965Z,7.46
2023-04-13T02:31:35.948Z,7.44
2023-04-13T02:34:05.235Z,7.42
2023-04-13T02:36:33.772Z,7.41
2023-04-13T02:39:06.748Z,7.39
2023-04-13T02:41:35.150Z,7.38
2023-04-13T02:44:04.451Z,7.36
2023-04-13T02:46:41.300Z,7.34
2023-04-13T02:49:13.326Z,7.31
2023-04-13T02:51:48.722Z,7.29
2023-04-13T02:54:17.915Z,7.27
2023-04-13T02:56:49.266Z,7.23
2023-04-13T02:59:17.512Z,7.21
2023-04-13T03:01:46.213Z,7.19
2023-04-13T03:04:15.163Z,7.16
2023-04-13T03:06:46.148Z,7.13
2023-04-13T03:09:14.194Z,7.11
2023-04-13T03:11:47.606Z,7.09
2023-04-13T03:14:24.598Z,7.07
2023-04-13T03:16:58.442Z,7.05
2023-04-13T03:19:36.236Z,7.03
2023-04-13T03:22:04.486Z,7.01
2023-04-13T03:24:35.293Z,6.99
2023-04-13T03:27:09.157Z,6.97
2023-04-13T03:29:41.909Z,6.95
2023-04-13T03:32:12.024Z,6.93
2023-04-13T03:34:44.547Z,6.92
2023-04-13T03:37:14.623Z,6.91
2023-04-13T03:39:42.767Z,6.90
2023-04-13T03:42:13.248Z,6.88
2023-04-13T03:44:46.332Z,6.88
2023-04-13T03:47:14.506Z,6.87
2023-04-13T03:49:42.487Z,6.86
2023-04-13T03:52:11.295Z,6.85
2023-04-13T03:54:42.754Z,6.84
2023-04-13T03:57:11.427Z,6.83
2023-04-13T03:59:39.701Z,6.82
2023-04-13T04:02:09.259Z,6.80
2023-04-13T04:04:41.056Z,6.80
2023-04-13T04:07:09.388Z,6.80
2023-04-13T04:09:37.479Z,6.79
2023-04-13T04:12:06.307Z,6.78
2023-04-13T04:14:41.092Z,6.77
2023-04-13T04:17:19.106Z,6.76
2023-04-13T04:19:47.611Z,6.76
2023-04-13T04:22:16.227Z,6.75
2023-04-13T04:24:44.322Z,6.74
2023-04-13T04:27:14.627Z,6.74
2023-04-13T04:29:49.818Z,6.74
2023-04-13T04:32:37.507Z,6.73
2023-04-13T04:35:12.351Z,6.73
2023-04-13T04:37:46.318Z,6.72
2023-04-13T04:40:17.900Z,6.72
2023-04-13T04:42:46.224Z,6.71
2023-04-13T04:45:36.484Z,6.70
2023-04-13T04:48:05.804Z,6.70
2023-04-13T04:50:34.457Z,6.71
2023-04-13T04:53:12.421Z,6.70
2023-04-13T04:55:41.180Z,6.70
2023-04-13T04:58:13.017Z,6.70
2023-04-13T05:00:46.875Z,6.70
2023-04-13T05:03:16.860Z,6.70
2023-04-13T05:05:48.703Z,6.70
2023-04-13T05:08:21.684Z,6.71
2023-04-13T05:10:51.202Z,6.71
2023-04-13T05:13:20.741Z,6.71
2023-04-13T05:15:57.943Z,6.72
2023-04-13T05:18:26.194Z,6.72
2023-04-13T05:20:56.603Z,6.72
2023-04-13T05:23:25.091Z,6.73
2023-04-13T05:25:58.226Z,6.73
2023-04-13T05:28:26.874Z,6.74
2023-04-13T05:31:00.266Z,6.75
2023-04-13T05:33:28.451Z,6.76
2023-04-13T05:35:57.359Z,6.77
2023-04-13T05:38:25.831Z,6.78
2023-04-13T05:40:54.365Z,6.79
2023-04-13T05:43:23.928Z,6.81
2023-04-13T05:45:56.432Z,6.83
2023-04-13T05:48:24.783Z,6.86
2023-04-13T05:50:58.650Z,6.87
2023-04-13T05:53:29.434Z,6.90
2023-04-13T05:55:58.533Z,6.92
2023-04-13T05:58:27.224Z,6.94
2023-04-13T06:01:12.925Z,6.96
2023-04-13T06:03:41.650Z,6.99
2023-04-13T06:06:10.595Z,7.01
2023-04-13T06:08:40.510Z,7.04
2023-04-13T06:11:17.018Z,7.06
2023-04-13T06:13:46.137Z,7.10
2023-04-13T06:16:15.639Z,7.12
2023-04-13T06:18:44.600Z,7.15
2023-04-13T06:21:12.760Z,7.18
2023-04-13T06:23:41.048Z,7.21
2023-04-13T06:26:18.432Z,7.25
2023-04-13T06:28:51.004Z,7.29
2023-04-13T06:31:19.364Z,7.33
2023-04-13T06:33:49.078Z,7.36
2023-04-13T06:36:18.147Z,7.40
2023-04-13T06:38:46.446Z,7.44
2023-04-13T06:41:14.869Z,7.48
2023-04-13T06:43:45.514Z,7.51
2023-04-13T06:46:20.722Z,7.55
2023-04-13T06:48:50.803Z,7.60
2023-04-13T06:51:24.061Z,7.64
2023-04-13T06:53:54.795Z,7.69
2023-04-13T06:56:23.379Z,7.73
2023-04-13T06:58:51.869Z,7.77
2023-04-13T07:01:20.969Z,7.82
2023-04-13T07:03:50.539Z,7.86
2023-04-13T07:06:18.960Z,7.90
2023-04-13T07:08:47.038Z,7.95
2023-04-13T07:11:15.539Z,7.99
2023-04-13T07:13:43.804Z,8.04
2023-04-13T07:16:12.769Z,8.08
2023-04-13T07:18:43.982Z,8.13
2023-04-13T07:21:12.056Z,8.17
2023-04-13T07:24:09.381Z,8.23
2023-04-13T07:26:39.810Z,8.28
2023-04-13T07:29:13.582Z,8.33
2023-04-13T07:31:45.536Z,8.38
2023-04-13T07:34:13.653Z,8.44
2023-04-13T07:36:46.263Z,8.48
2023-04-13T07:39:17.566Z,8.54
2023-04-13T07:41:48.726Z,8.59
2023-04-13T07:44:21.310Z,8.65
2023-04-13T07:46:49.317Z,8.70
2023-04-13T07:49:17.993Z,8.76
2023-04-13T07:51:46.667Z,8.82
2023-04-13T07:54:16.917Z,8.87
2023-04-13T07:56:45.566Z,8.92
2023-04-13T07:59:14.440Z,8.98
2023-04-13T08:01:42.845Z,9.04
2023-04-13T08:04:11.153Z,9.10
2023-04-13T08:06:39.774Z,9.14
2023-04-13T08:09:08.248Z,9.20
2023-04-13T08:11:36.493Z,9.26
2023-04-13T08:14:09.892Z,9.31
2023-04-13T08:16:38.542Z,9.37
2023-04-13T08:19:09.324Z,9.42
2023-04-13T08:21:41.908Z,9.47
2023-04-13T08:24:10.095Z,9.52
2023-04-13T08:26:38.365Z,9.58
2023-04-13T08:29:06.381Z,9.63
2023-04-13T08:31:34.761Z,9.67
2023-04-13T08:34:05.661Z,9.73
2023-04-13T08:36:34.086Z,9.77
2023-04-13T08:39:09.831Z,9.83
2023-04-13T08:41:41.859Z,9.88
2023-04-13T08:44:12.395Z,9.94
2023-04-13T08:46:44.053Z,9.99
2023-04-13T08:49:12.543Z,10.04
2023-04-13T08:52:00.105Z,10.09
2023-04-13T08:54:28.603Z,10.15
2023-04-13T08:56:57.895Z,10.20
2023-04-13T08:59:28.439Z,10.26
2023-04-13T09:01:57.726Z,10.31
2023-04-13T09:04:32.444Z,10.36
2023-04-13T09:07:01.201Z,10.42
2023-04-13T09:09:30.097Z,10.47
2023-04-13T09:11:59.235Z,10.52
2023-04-13T09:14:27.990Z,10.57
2023-04-13T09:16:56.407Z,10.62
2023-04-13T09:19:35.267Z,10.66
2023-04-13T09:22:12.900Z,10.71
2023-04-13T09:24:41.713Z,10.76
2023-04-13T09:27:23.695Z,10.80
2023-04-13T09:29:52.487Z,10.85
2023-04-13T09:32:21.884Z,10.90
2023-04-13T09:35:00.399Z,10.94
2023-04-13T09:37:28.568Z,10.98
2023-04-13T09:40:08.373Z,11.02
2023-04-13T09:42:38.505Z,11.07
2023-04-13T09:45:07.882Z,11.11
2023-04-13T09:47:38.548Z,11.16
2023-04-13T09:50:37.166Z,11.19
2023-04-13T09:53:06.192Z,11.24
2023-04-13T09:55:35.570Z,11.28
2023-04-13T09:58:13.900Z,11.31
2023-04-13T10:00:43.012Z,11.35
2023-04-13T10:03:15.208Z,11.39
2023-04-13T10:05:58.866Z,11.43
2023-04-13T10:11:01.893Z,11.51
2023-04-13T10:13:37.002Z,11.54
2023-04-13T10:16:23.637Z,11.58
2023-04-13T10:19:02.767Z,11.62
2023-04-13T10:21:41.104Z,11.65
2023-04-13T10:24:12.705Z,11.69
2023-04-13T10:26:42.532Z,11.73
2023-04-13T10:29:13.640Z,11.77
2023-04-13T10:31:49.363Z,11.81
2023-04-13T10:34:25.741Z,11.84
2023-04-13T10:36:56.326Z,11.89
2023-04-13T10:39:26.042Z,11.93
2023-04-13T10:42:01.635Z,11.97
2023-04-13T10:44:50.047Z,12.01
2023-04-13T10:47:20.657Z,12.04
2023-04-13T10:49:49.345Z,12.08
2023-04-13T10:52:17.850Z,12.12
2023-04-13T10:54:45.805Z,12.15
2023-04-13T10:57:15.116Z,12.20
2023-04-13T10:59:58.596Z,12.23
2023-04-13T11:02:34.281Z,12.28
2023-04-13T11:05:02.980Z,12.32
2023-04-13T11:07:31.629Z,12.36
2023-04-13T11:12:30.750Z,12.44
2023-04-13T11:14:59.181Z,12.48
2023-04-13T11:17:27.584Z,12.52
2023-04-13T11:19:57.336Z,12.56
2023-04-13T11:22:28.126Z,12.59
2023-04-13T11:25:06.533Z,12.63
2023-04-13T11:27:34.712Z,12.67
2023-04-13T11:30:06.993Z,12.71
2023-04-13T11:32:36.919Z,12.75
2023-04-13T11:35:06.205Z,12.78
2023-04-13T11:37:37.979Z,12.83
2023-04-13T11:40:17.522Z,12.87
2023-04-13T11:42:46.402Z,12.90
2023-04-13T11:45:15.973Z,12.93
2023-04-13T11:47:44.684Z,12.97
2023-04-13T11:50:15.487Z,13.00
2023-04-13T11:52:44.845Z,13.03
2023-04-13T11:55:22.334Z,13.06
2023-04-13T11:57:53.137Z,13.10
2023-04-13T12:00:24.565Z,13.14
2023-04-13T12:05:30.273Z,13.21
2023-04-13T12:07:58.997Z,13.25
2023-04-13T12:10:38.485Z,13.29
2023-04-13T12:16:05.558Z,13.37
2023-04-13T12:18:57.683Z,13.41
2023-04-13T12:21:26.732Z,13.46
2023-04-13T12:23:55.644Z,13.50
2023-04-13T12:29:03.680Z,13.58
2023-04-13T12:31:38.547Z,13.63
2023-04-13T12:34:07.964Z,13.67
2023-04-13T12:36:37.057Z,13.70
2023-04-13T12:39:06.721Z,13.74
2023-04-13T12:41:34.923Z,13.79
2023-04-13T12:44:02.926Z,13.82
2023-04-13T12:46:31.032Z,13.87
2023-04-13T12:48:59.192Z,13.90
2023-04-13T12:51:27.679Z,13.93
2023-04-13T12:53:55.663Z,13.97
2023-04-13T12:56:24.821Z,13.99
2023-04-13T12:58:52.916Z,14.02
2023-04-13T13:01:22.098Z,14.05
2023-04-13T13:03:50.619Z,14.07
2023-04-13T13:06:18.788Z,14.10
2023-04-13T13:08:47.075Z,14.12
2023-04-13T13:11:15.003Z,14.14
2023-04-13T13:13:43.022Z,14.17
2023-04-13T13:16:11.218Z,14.19
2023-04-13T13:18:49.695Z,14.22
2023-04-13T13:21:20.211Z,14.24
2023-04-13T13:23:48.251Z,14.27
2023-04-13T13:28:48.088Z,14.31
2023-04-13T13:31:16.317Z,14.33
2023-04-13T13:33:44.260Z,14.35
2023-04-13T13:36:14.501Z,14.37
2023-04-13T13:38:43.389Z,14.38
2023-04-13T13:41:11.610Z,14.40
2023-04-13T13:43:39.736Z,14.43
2023-04-13T13:46:08.073Z,14.45
2023-04-13T13:48:36.662Z,14.47
2023-04-13T13:51:27.352Z,14.49
2023-04-13T13:53:56.041Z,14.52
2023-04-13T13:56:24.116Z,14.55
2023-04-13T13:58:52.127Z,14.57
2023-04-13T14:01:21.062Z,14.59
2023-04-13T14:03:49.332Z,14.62
2023-04-13T14:06:17.560Z,14.64
2023-04-13T14:08:45.723Z,14.66
2023-04-13T14:11:14.641Z,14.68
2023-04-13T14:13:42.622Z,14.70
2023-04-13T14:16:10.939Z,14.72
2023-04-13T14:18:38.939Z,14.75
2023-04-13T14:21:07.490Z,14.77
2023-04-13T14:23:37.763Z,14.79
2023-04-13T14:26:06.154Z,14.82
2023-04-13T14:28:34.435Z,14.85
2023-04-13T14:31:02.634Z,14.87
2023-04-13T14:33:31.302Z,14.90
2023-04-13T14:35:59.499Z,14.93
2023-04-13T14:38:27.833Z,14.96
2023-04-13T14:40:56.562Z,14.98
2023-04-13T14:43:24.629Z,15.01
2023-04-13T14:45:53.938Z,15.05
2023-04-13T14:48:22.318Z,15.09
2023-04-13T14:50:50.387Z,15.11
2023-04-13T14:53:18.674Z,15.14
2023-04-13T14:55:46.701Z,15.17
2023-04-13T14:58:15.854Z,15.20
2023-04-13T15:00:44.660Z,15.23
2023-04-13T15:03:13.789Z,15.25
2023-04-13T15:05:45.540Z,15.28
2023-04-13T15:08:17.865Z,15.31
2023-04-13T15:10:45.858Z,15.33
2023-04-13T15:13:14.038Z,15.35
2023-04-13T15:15:42.735Z,15.37
2023-04-13T15:18:10.971Z,15.40
2023-04-13T15:20:38.987Z,15.42
2023-04-13T15:23:07.196Z,15.45
2023-04-13T15:25:36.811Z,15.47
2023-04-13T15:28:04.844Z,15.50
2023-04-13T15:30:35.074Z,15.52
2023-04-13T15:33:03.547Z,15.55
2023-04-13T15:35:33.987Z,15.57
2023-04-13T15:38:05.674Z,15.60
2023-04-13T15:40:34.045Z,15.62
2023-04-13T15:43:02.628Z,15.65
2023-04-13T15:45:30.809Z,15.67
2023-04-13T15:47:58.788Z,15.69
2023-04-13T15:50:27.049Z,15.72
2023-04-13T15:52:55.237Z,15.74
2023-04-13T15:55:23.113Z,15.76
2023-04-13T15:57:53.961Z,15.78
2023-04-13T16:00:22.335Z,15.80
2023-04-13T16:02:50.487Z,15.81
2023-04-13T16:05:19.807Z,15.83
2023-04-13T16:07:48.088Z,15.84
2023-04-13T16:10:16.902Z,15.84
2023-04-13T16:12:45.649Z,15.85
2023-04-13T16:15:13.885Z,15.86
2023-04-13T16:17:44.265Z,15.86
2023-04-13T16:20:12.588Z,15.87
2023-04-13T16:22:41.538Z,15.87
2023-04-13T16:25:15.329Z,15.87
2023-04-13T16:27:43.644Z,15.87
2023-04-13T16:30:13.091Z,15.87
2023-04-13T16:32:42.787Z,15.87
2023-04-13T16:35:11.197Z,15.86
2023-04-13T16:37:41.240Z,15.85
2023-04-13T16:40:12.400Z,15.84
2023-04-13T16:42:40.646Z,15.83
2023-04-13T16:45:15.112Z,15.82
2023-04-13T16:47:43.861Z,15.80
2023-04-13T16:50:12.714Z,15.79
2023-04-13T16:52:41.264Z,15.76
2023-04-13T16:55:14.242Z,15.74
2023-04-13T16:57:43.050Z,15.70
2023-04-13T17:00:11.684Z,15.66
2023-04-13T17:02:40.763Z,15.61
2023-04-13T17:05:10.175Z,15.57
2023-04-13T17:07:39.083Z,15.52
2023-04-13T17:10:07.981Z,15.46
2023-04-13T17:12:36.640Z,15.41
2023-04-13T17:15:07.588Z,15.35
2023-04-13T17:17:35.858Z,15.28
2023-04-13T17:20:05.019Z,15.21
2023-04-13T17:22:33.117Z,15.14
2023-04-13T17:25:01.210Z,15.06
2023-04-13T17:27:29.283Z,14.98
2023-04-13T17:29:57.624Z,14.91
2023-04-13T17:32:25.916Z,14.85
2023-04-13T17:34:53.873Z,14.78
2023-04-13T17:37:22.498Z,14.70
2023-04-13T17:39:51.614Z,14.63
2023-04-13T17:42:19.690Z,14.55
2023-04-13T17:44:47.585Z,14.47
2023-04-13T17:47:15.619Z,14.38
2023-04-13T17:49:44.072Z,14.31
2023-04-13T17:52:12.138Z,14.25
2023-04-13T17:54:40.726Z,14.18
2023-04-13T17:57:08.796Z,14.10
2023-04-13T17:59:36.783Z,14.02
2023-04-13T18:02:04.769Z,13.94
2023-04-13T18:04:33.107Z,13.87
2023-04-13T18:07:01.759Z,13.81
2023-04-13T18:09:29.788Z,13.74
2023-04-13T18:11:57.844Z,13.67
2023-04-13T18:14:26.060Z,13.61
2023-04-13T18:16:54.050Z,13.54
2023-04-13T18:19:22.010Z,13.48
2023-04-13T18:21:50.014Z,13.40
2023-04-13T18:24:17.937Z,13.35
2023-04-13T18:26:46.129Z,13.29
2023-04-13T18:29:14.227Z,13.23
2023-04-13T18:31:42.300Z,13.16
2023-04-13T18:34:13.028Z,13.09
2023-04-13T18:36:42.332Z,13.02
2023-04-13T18:39:10.400Z,12.95
2023-04-13T18:41:40.928Z,12.90
2023-04-13T18:44:10.525Z,12.85
2023-04-13T18:46:38.696Z,12.80
2023-04-13T18:49:07.248Z,12.73
2023-04-13T18:51:35.346Z,12.68
2023-04-13T18:54:04.233Z,12.62
2023-04-13T18:56:32.373Z,12.55
2023-04-13T18:59:00.312Z,12.50
2023-04-13T19:01:28.362Z,12.43
2023-04-13T19:03:56.942Z,12.39
2023-04-13T19:06:25.156Z,12.33
2023-04-13T19:08:53.154Z,12.28
2023-04-13T19:11:24.306Z,12.23
2023-04-13T19:13:52.387Z,12.17
2023-04-13T19:16:21.802Z,12.12
2023-04-13T19:18:49.984Z,12.08
2023-04-13T19:21:18.766Z,12.03
2023-04-13T19:23:46.760Z,11.98
2023-04-13T19:26:14.725Z,11.93
2023-04-13T19:28:42.657Z,11.89
2023-04-13T19:31:11.982Z,11.85
2023-04-13T19:33:40.068Z,11.80
2023-04-13T19:36:08.505Z,11.76
2023-04-13T19:38:36.596Z,11.72
2023-04-13T19:41:04.663Z,11.67
2023-04-13T19:43:32.710Z,11.63
2023-04-13T19:46:00.704Z,11.60
2023-04-13T19:48:28.931Z,11.57
2023-04-13T19:50:57.318Z,11.55
2023-04-13T19:53:25.291Z,11.54
2023-04-13T19:55:53.239Z,11.51
2023-04-13T19:58:21.285Z,11.48
2023-04-13T20:00:50.063Z,11.46
2023-04-13T20:03:20.756Z,11.43
2023-04-13T20:05:48.949Z,11.41
2023-04-13T20:08:17.016Z,11.40
2023-04-13T20:10:45.074Z,11.38
2023-04-13T20:13:12.994Z,11.36
2023-04-13T20:15:41.108Z,11.34
2023-04-13T20:18:09.241Z,11.34
2023-04-13T20:20:37.563Z,11.34
2023-04-13T20:23:05.660Z,11.34
2023-04-13T20:25:33.787Z,11.35
2023-04-13T20:28:01.813Z,11.34
2023-04-13T20:30:30.827Z,11.34
2023-04-13T20:32:58.844Z,11.33
2023-04-13T20:35:27.891Z,11.32
2023-04-13T20:38:00.049Z,11.30
2023-04-13T20:40:28.387Z,11.29
2023-04-13T20:42:58.539Z,11.27
2023-04-13T20:45:27.384Z,11.25
2023-04-13T20:47:56.261Z,11.24
2023-04-13T20:50:27.601Z,11.23
2023-04-13T20:52:56.892Z,11.22
2023-04-13T20:55:26.373Z,11.22
2023-04-13T20:57:54.341Z,11.21
2023-04-13T21:00:23.608Z,11.21
2023-04-13T21:02:53.245Z,11.22
2023-04-13T21:05:22.481Z,11.22
2023-04-13T21:07:51.932Z,11.23
2023-04-13T21:10:21.228Z,11.22
2023-04-13T21:12:49.125Z,11.24
2023-04-13T21:15:17.198Z,11.23
2023-04-13T21:17:45.272Z,11.23
2023-04-13T21:20:13.526Z,11.23
2023-04-13T21:22:41.750Z,11.23
2023-04-13T21:25:10.003Z,11.22
2023-04-13T21:27:37.953Z,11.20
2023-04-13T21:30:06.317Z,11.18
2023-04-13T21:32:34.424Z,11.17
2023-04-13T21:35:02.591Z,11.15
2023-04-13T21:37:30.698Z,11.13
2023-04-13T21:39:58.761Z,11.12
2023-04-13T21:42:26.773Z,11.12
2023-04-13T21:44:55.765Z,11.12
2023-04-13T21:47:23.807Z,11.12
2023-04-13T21:49:51.728Z,11.12
2023-04-13T21:52:19.777Z,11.12
2023-04-13T21:54:49.190Z,11.12
2023-04-13T21:57:19.044Z,11.13
2023-04-13T21:59:47.070Z,11.13
2023-04-13T22:02:16.025Z,11.12
2023-04-13T22:04:44.333Z,11.12
2023-04-13T22:07:12.434Z,11.11
2023-04-13T22:09:40.580Z,11.09
2023-04-13T22:12:10.932Z,11.08
2023-04-13T22:14:39.045Z,11.05
2023-04-13T22:17:07.292Z,11.03
2023-04-13T22:19:35.355Z,11.01
2023-04-13T22:22:04.232Z,10.98
2023-04-13T22:24:32.416Z,10.96
2023-04-13T22:27:03.861Z,10.93
2023-04-13T22:29:31.934Z,10.91
2023-04-13T22:32:00.204Z,10.88
2023-04-13T22:34:28.570Z,10.85
2023-04-13T22:36:56.771Z,10.84
2023-04-13T22:39:25.334Z,10.81
2023-04-13T22:41:53.248Z,10.78
2023-04-13T22:44:21.317Z,10.75
2023-04-13T22:46:50.184Z,10.72
2023-04-13T22:49:18.221Z,10.70
2023-04-13T22:51:46.649Z,10.67
2023-04-13T22:54:15.695Z,10.64
2023-04-13T22:56:43.774Z,10.62
2023-04-13T22:59:11.724Z,10.60
2023-04-13T23:01:39.927Z,10.57
2023-04-13T23:04:08.083Z,10.55
2023-04-13T23:06:36.586Z,10.52
2023-04-13T23:09:04.837Z,10.49
2023-04-13T23:11:32.939Z,10.47
2023-04-13T23:14:01.905Z,10.44
2023-04-13T23:16:30.139Z,10.42
2023-04-13T23:18:58.692Z,10.41
2023-04-13T23:21:29.106Z,10.39
2023-04-13T23:23:57.819Z,10.36
2023-04-13T23:26:26.419Z,10.35
2023-04-13T23:28:55.437Z,10.32
2023-04-13T23:31:23.461Z,10.29
2023-04-13T23:33:53.904Z,10.26
2023-04-13T23:36:23.521Z,10.24
2023-04-13T23:38:51.788Z,10.21
2023-04-13T23:41:19.868Z,10.18
2023-04-13T23:43:48.025Z,10.16
2023-04-13T23:46:16.188Z,10.14
2023-04-13T23:48:44.256Z,10.12
2023-04-13T23:51:12.279Z,10.11
2023-04-13T23:53:40.770Z,10.09
2023-04-13T23:56:08.853Z,10.07
2023-04-13T23:58:36.923Z,10.05
